createdAt,value
2023-11-23T00:00:19.420Z,11.38
2023-11-23T00:00:52.462Z,11.15
2023-11-23T00:01:24.250Z,13.32
2023-11-23T00:01:56.081Z,12.47
2023-11-23T00:02:27.914Z,11.43
2023-11-23T00:02:59.733Z,13.38
2023-11-23T00:03:31.487Z,12.25
2023-11-23T00:04:03.401Z,11.75
2023-11-23T00:04:35.280Z,11.65
2023-11-23T00:05:08.476Z,11.60
2023-11-23T00:05:40.203Z,12.30
2023-11-23T00:06:11.927Z,13.65
2023-11-23T00:06:43.771Z,12.27
2023-11-23T00:07:15.552Z,13.43
2023-11-23T00:07:47.257Z,12.27
2023-11-23T00:08:18.954Z,13.30
2023-11-23T00:08:50.728Z,13.05
2023-11-23T00:09:22.640Z,12.43
2023-11-23T00:09:54.399Z,14.53
2023-11-23T00:10:26.266Z,15.18
2023-11-23T00:10:58.001Z,12.43
2023-11-23T00:11:29.779Z,12.80
2023-11-23T00:12:01.659Z,11.15
2023-11-23T00:12:33.504Z,12.10
2023-11-23T00:13:05.272Z,12.23
2023-11-23T00:13:37.058Z,12.60
2023-11-23T00:14:08.784Z,12.82
2023-11-23T00:14:40.720Z,12.80
2023-11-23T00:15:12.690Z,12.18
2023-11-23T00:15:44.493Z,11.85
2023-11-23T00:16:17.649Z,11.90
2023-11-23T00:16:49.406Z,12.07
2023-11-23T00:17:21.238Z,11.77
2023-11-23T00:17:52.993Z,13.45
2023-11-23T00:18:24.809Z,13.38
2023-11-23T00:18:56.744Z,12.10
2023-11-23T00:19:28.499Z,11.48
2023-11-23T00:20:00.461Z,13.20
2023-11-23T00:20:32.194Z,11.23
2023-11-23T00:21:03.923Z,13.00
2023-11-23T00:21:35.713Z,12.75
2023-11-23T00:22:07.608Z,12.93
2023-11-23T00:22:39.561Z,10.33
2023-11-23T00:23:11.370Z,13.45
2023-11-23T00:23:43.198Z,13.80
2023-11-23T00:24:15.006Z,12.18
2023-11-23T00:24:46.724Z,10.98
2023-11-23T00:25:18.422Z,12.65
2023-11-23T00:25:50.196Z,14.20
2023-11-23T00:26:22.039Z,12.82
2023-11-23T00:27:01.466Z,13.10
2023-11-23T00:27:33.342Z,12.80
2023-11-23T00:28:05.139Z,12.20
2023-11-23T00:28:36.868Z,12.57
2023-11-23T00:29:08.805Z,11.82
2023-11-23T00:29:40.531Z,13.60
2023-11-23T00:30:13.360Z,14.32
2023-11-23T00:30:45.256Z,13.52
2023-11-23T00:31:18.359Z,12.18
2023-11-23T00:31:50.128Z,12.63
2023-11-23T00:32:21.832Z,13.05
2023-11-23T00:32:53.756Z,14.15
2023-11-23T00:33:25.685Z,13.55
2023-11-23T00:33:57.717Z,13.10
2023-11-23T00:34:29.536Z,11.10
2023-11-23T00:35:01.245Z,13.18
2023-11-23T00:35:32.991Z,14.13
2023-11-23T00:36:05.287Z,14.15
2023-11-23T00:36:37.060Z,13.25
2023-11-23T00:37:08.900Z,12.88
2023-11-23T00:37:40.665Z,13.43
2023-11-23T00:38:12.485Z,13.35
2023-11-23T00:38:44.380Z,13.35
2023-11-23T00:39:16.402Z,13.45
2023-11-23T00:39:48.139Z,13.48
2023-11-23T00:40:20.012Z,13.45
2023-11-23T00:40:51.761Z,11.27
2023-11-23T00:41:23.688Z,13.38
2023-11-23T00:41:55.469Z,14.27
2023-11-23T00:42:27.261Z,12.00
2023-11-23T00:42:58.981Z,12.93
2023-11-23T00:43:30.757Z,11.15
2023-11-23T00:44:02.546Z,11.88
2023-11-23T00:44:34.299Z,11.27
2023-11-23T00:45:07.613Z,12.27
2023-11-23T00:45:39.414Z,12.30
2023-11-23T00:46:11.127Z,12.30
2023-11-23T00:46:44.261Z,11.73
2023-11-23T00:47:15.981Z,12.52
2023-11-23T00:47:47.880Z,12.35
2023-11-23T00:48:19.801Z,12.90
2023-11-23T00:48:51.581Z,12.90
2023-11-23T00:49:23.369Z,13.35
2023-11-23T00:49:55.214Z,10.82
2023-11-23T00:50:27.048Z,11.43
2023-11-23T00:50:58.865Z,11.88
2023-11-23T00:51:30.645Z,11.63
2023-11-23T00:52:02.494Z,13.13
2023-11-23T00:52:34.264Z,12.45
2023-11-23T00:53:06.009Z,12.27
2023-11-23T00:53:38.034Z,13.85
2023-11-23T00:54:09.829Z,12.73
2023-11-23T00:54:41.602Z,12.85
2023-11-23T00:55:13.376Z,12.18
2023-11-23T00:55:45.123Z,11.35
2023-11-23T00:56:16.948Z,12.45
2023-11-23T00:56:48.848Z,12.35
2023-11-23T00:57:20.655Z,12.15
2023-11-23T00:57:52.429Z,13.43
2023-11-23T00:58:24.337Z,12.98
2023-11-23T00:58:56.027Z,12.05
2023-11-23T00:59:27.787Z,12.57
2023-11-23T00:59:59.661Z,15.20
2023-11-23T01:00:31.430Z,10.68
2023-11-23T01:01:04.999Z,13.02
2023-11-23T01:01:36.811Z,11.85
2023-11-23T01:02:10.192Z,12.32
2023-11-23T01:02:42.200Z,11.13
2023-11-23T01:03:14.369Z,11.05
2023-11-23T01:03:46.645Z,11.38
2023-11-23T01:04:18.601Z,12.30
2023-11-23T01:04:50.329Z,11.40
2023-11-23T01:05:22.133Z,10.50
2023-11-23T01:05:53.873Z,12.77
2023-11-23T01:06:25.575Z,11.93
2023-11-23T01:06:57.938Z,10.85
2023-11-23T01:07:29.722Z,11.68
2023-11-23T01:08:01.447Z,9.60
2023-11-23T01:08:33.275Z,11.93
2023-11-23T01:09:05.027Z,10.93
2023-11-23T01:09:36.774Z,12.05
2023-11-23T01:10:09.181Z,10.85
2023-11-23T01:10:41.123Z,12.93
2023-11-23T01:11:12.950Z,12.83
2023-11-23T01:11:44.749Z,9.98
2023-11-23T01:12:16.608Z,10.75
2023-11-23T01:12:49.144Z,9.88
2023-11-23T01:13:20.871Z,11.68
2023-11-23T01:13:52.645Z,11.50
2023-11-23T01:14:24.426Z,12.23
2023-11-23T01:14:56.154Z,11.45
2023-11-23T01:15:27.921Z,12.85
2023-11-23T01:15:59.684Z,12.05
2023-11-23T01:16:31.516Z,11.52
2023-11-23T01:17:03.417Z,11.70
2023-11-23T01:17:37.002Z,10.15
2023-11-23T01:18:08.856Z,10.95
2023-11-23T01:18:40.688Z,11.20
2023-11-23T01:19:12.811Z,10.48
2023-11-23T01:19:44.521Z,9.98
2023-11-23T01:20:16.315Z,9.93
2023-11-23T01:20:48.142Z,10.70
2023-11-23T01:21:19.856Z,11.70
2023-11-23T01:21:51.617Z,10.18
2023-11-23T01:22:23.294Z,10.98
2023-11-23T01:22:55.674Z,10.95
2023-11-23T01:23:27.459Z,9.90
2023-11-23T01:23:59.210Z,11.35
2023-11-23T01:24:30.930Z,9.65
2023-11-23T01:25:02.888Z,10.73
2023-11-23T01:25:34.637Z,10.32
2023-11-23T01:26:07.069Z,12.55
2023-11-23T01:26:39.089Z,9.93
2023-11-23T01:27:10.916Z,11.80
2023-11-23T01:27:42.649Z,11.35
2023-11-23T01:28:14.388Z,10.43
2023-11-23T01:28:46.197Z,10.98
2023-11-23T01:29:17.970Z,11.10
2023-11-23T01:29:49.839Z,11.07
2023-11-23T01:30:21.747Z,11.38
2023-11-23T01:30:53.475Z,10.32
2023-11-23T01:31:25.196Z,10.45
2023-11-23T01:31:56.971Z,10.10
2023-11-23T01:32:28.726Z,10.35
2023-11-23T01:33:01.927Z,11.00
2023-11-23T01:33:33.859Z,12.05
2023-11-23T01:34:05.813Z,10.20
2023-11-23T01:34:37.613Z,11.17
2023-11-23T01:35:09.535Z,11.50
2023-11-23T01:35:41.418Z,11.95
2023-11-23T01:36:13.377Z,11.02
2023-11-23T01:36:45.095Z,10.60
2023-11-23T01:37:16.846Z,11.82
2023-11-23T01:37:48.702Z,12.85
2023-11-23T01:38:20.555Z,12.45
2023-11-23T01:38:52.329Z,9.43
2023-11-23T01:39:24.109Z,11.02
2023-11-23T01:39:55.844Z,10.43
2023-11-23T01:40:27.593Z,11.65
2023-11-23T01:40:59.354Z,12.38
2023-11-23T01:41:31.104Z,11.57
2023-11-23T01:42:02.958Z,10.13
2023-11-23T01:42:34.785Z,9.57
2023-11-23T01:43:07.514Z,10.93
2023-11-23T01:43:39.253Z,11.38
2023-11-23T01:44:11.059Z,11.45
2023-11-23T01:44:42.901Z,12.07
2023-11-23T01:45:14.847Z,10.13
2023-11-23T01:45:46.710Z,11.43
2023-11-23T01:46:18.550Z,9.77
2023-11-23T01:46:50.473Z,10.07
2023-11-23T01:47:22.425Z,12.57
2023-11-23T01:47:54.628Z,12.38
2023-11-23T01:48:28.462Z,11.82
2023-11-23T01:49:01.545Z,11.25
2023-11-23T01:49:34.732Z,12.30
2023-11-23T01:50:08.869Z,12.65
2023-11-23T01:50:42.048Z,13.18
2023-11-23T01:51:14.829Z,11.73
2023-11-23T01:51:46.924Z,10.30
2023-11-23T01:52:18.881Z,12.25
2023-11-23T01:52:50.777Z,11.90
2023-11-23T01:53:23.118Z,11.45
2023-11-23T01:53:55.163Z,10.88
2023-11-23T01:54:27.387Z,11.73
2023-11-23T01:54:59.334Z,14.82
2023-11-23T01:55:31.266Z,13.05
2023-11-23T01:56:03.398Z,11.48
2023-11-23T01:56:35.905Z,12.68
2023-11-23T01:57:08.391Z,15.23
2023-11-23T01:57:40.430Z,12.10
2023-11-23T01:58:17.282Z,13.20
2023-11-23T01:58:49.499Z,11.43
2023-11-23T01:59:21.259Z,12.95
2023-11-23T01:59:53.143Z,12.95
2023-11-23T02:00:25.087Z,14.50
2023-11-23T02:00:57.038Z,12.27
2023-11-23T02:01:29.030Z,12.88
2023-11-23T02:02:01.089Z,13.73
2023-11-23T02:02:32.950Z,13.15
2023-11-23T02:03:05.999Z,14.55
2023-11-23T02:03:39.966Z,14.18
2023-11-23T02:04:12.037Z,15.50
2023-11-23T02:04:43.890Z,15.40
2023-11-23T02:05:16.948Z,13.13
2023-11-23T02:05:48.671Z,15.02
2023-11-23T02:06:20.428Z,14.32
2023-11-23T02:06:52.268Z,15.52
2023-11-23T02:07:24.071Z,14.57
2023-11-23T02:07:56.416Z,13.50
2023-11-23T02:08:28.198Z,15.65
2023-11-23T02:09:00.312Z,14.13
2023-11-23T02:09:32.125Z,16.15
2023-11-23T02:10:04.361Z,15.93
2023-11-23T02:10:36.385Z,13.18
2023-11-23T02:11:08.251Z,14.23
2023-11-23T02:11:40.298Z,13.90
2023-11-23T02:12:12.219Z,13.93
2023-11-23T02:12:45.233Z,14.95
2023-11-23T02:13:17.204Z,17.95
2023-11-23T02:13:49.165Z,15.07
2023-11-23T02:14:21.083Z,17.80
2023-11-23T02:14:54.957Z,14.70
2023-11-23T02:15:26.718Z,15.15
2023-11-23T02:15:58.497Z,15.13
2023-11-23T02:16:30.321Z,16.30
2023-11-23T02:17:15.011Z,13.88
2023-11-23T02:17:46.939Z,14.88
2023-11-23T02:18:18.799Z,14.32
2023-11-23T02:18:52.140Z,14.35
2023-11-23T02:19:23.855Z,14.32
2023-11-23T02:19:55.573Z,13.30
2023-11-23T02:20:27.287Z,14.95
2023-11-23T02:20:59.705Z,14.90
2023-11-23T02:21:31.603Z,15.50
2023-11-23T02:22:03.426Z,14.35
2023-11-23T02:22:35.334Z,15.25
2023-11-23T02:23:07.123Z,13.85
2023-11-23T02:23:39.022Z,15.50
2023-11-23T02:24:13.266Z,15.85
2023-11-23T02:24:45.591Z,14.02
2023-11-23T02:25:17.292Z,12.90
2023-11-23T02:25:49.051Z,14.48
2023-11-23T02:26:20.783Z,14.43
2023-11-23T02:26:52.573Z,17.38
2023-11-23T02:27:24.263Z,14.35
2023-11-23T02:27:56.114Z,15.10
2023-11-23T02:28:28.093Z,12.98
2023-11-23T02:28:59.844Z,14.68
2023-11-23T02:29:31.576Z,17.00
2023-11-23T02:30:03.849Z,13.52
2023-11-23T02:30:35.624Z,16.58
2023-11-23T02:31:07.406Z,14.80
2023-11-23T02:31:39.173Z,14.70
2023-11-23T02:32:11.249Z,14.90
2023-11-23T02:32:43.036Z,15.95
2023-11-23T02:33:14.997Z,14.95
2023-11-23T02:33:46.812Z,14.73
2023-11-23T02:34:18.514Z,14.68
2023-11-23T02:34:50.281Z,15.50
2023-11-23T02:35:22.291Z,14.38
2023-11-23T02:35:54.317Z,15.00
2023-11-23T02:36:26.076Z,16.52
2023-11-23T02:36:57.746Z,15.85
2023-11-23T02:37:29.624Z,14.32
2023-11-23T02:38:01.328Z,16.90
2023-11-23T02:38:33.031Z,14.30
2023-11-23T02:39:04.876Z,16.65
2023-11-23T02:39:37.973Z,15.82
2023-11-23T02:40:10.614Z,15.15
2023-11-23T02:40:42.342Z,16.48
2023-11-23T02:41:14.057Z,15.60
2023-11-23T02:41:45.959Z,14.25
2023-11-23T02:42:17.830Z,14.70
2023-11-23T02:42:49.638Z,15.48
2023-11-23T02:43:21.471Z,16.42
2023-11-23T02:43:53.321Z,16.70
2023-11-23T02:44:25.268Z,16.85
2023-11-23T02:44:57.025Z,17.33
2023-11-23T02:45:28.751Z,17.08
2023-11-23T02:46:00.587Z,14.30
2023-11-23T02:46:32.521Z,16.77
2023-11-23T02:47:04.763Z,16.83
2023-11-23T02:47:36.551Z,15.23
2023-11-23T02:48:08.585Z,16.55
2023-11-23T02:48:40.478Z,16.02
2023-11-23T02:49:12.243Z,15.35
2023-11-23T02:49:43.961Z,17.70
2023-11-23T02:50:15.884Z,16.63
2023-11-23T02:50:49.117Z,16.85
2023-11-23T02:51:20.855Z,17.27
2023-11-23T02:51:52.607Z,14.75
2023-11-23T02:52:24.340Z,15.32
2023-11-23T02:52:56.045Z,14.20
2023-11-23T02:53:27.845Z,16.38
2023-11-23T02:53:59.608Z,16.77
2023-11-23T02:54:31.481Z,17.77
2023-11-23T02:55:05.160Z,15.90
2023-11-23T02:55:36.916Z,13.48
2023-11-23T02:56:09.118Z,17.17
2023-11-23T02:56:41.135Z,15.95
2023-11-23T02:57:13.037Z,14.90
2023-11-23T02:57:44.807Z,16.67
2023-11-23T02:58:16.532Z,15.77
2023-11-23T02:58:48.373Z,15.77
2023-11-23T02:59:20.954Z,16.05
2023-11-23T02:59:52.868Z,15.85
2023-11-23T03:00:24.672Z,14.95
2023-11-23T03:00:56.517Z,16.10
2023-11-23T03:01:28.355Z,15.23
2023-11-23T03:02:00.301Z,14.32
2023-11-23T03:02:32.145Z,16.65
2023-11-23T03:03:03.986Z,15.35
2023-11-23T03:03:35.802Z,15.05
2023-11-23T03:04:07.646Z,17.83
2023-11-23T03:04:39.407Z,17.55
2023-11-23T03:05:11.305Z,16.02
2023-11-23T03:05:44.228Z,16.10
2023-11-23T03:06:16.078Z,14.18
2023-11-23T03:06:47.881Z,16.13
2023-11-23T03:07:19.604Z,15.52
2023-11-23T03:07:51.385Z,16.80
2023-11-23T03:08:23.132Z,14.07
2023-11-23T03:08:55.000Z,14.27
2023-11-23T03:09:26.933Z,17.63
2023-11-23T03:09:58.672Z,15.93
2023-11-23T03:10:31.714Z,15.18
2023-11-23T03:11:03.406Z,15.88
2023-11-23T03:11:35.226Z,15.27
2023-11-23T03:12:07.665Z,15.60
2023-11-23T03:12:39.491Z,15.10
2023-11-23T03:13:11.911Z,15.75
2023-11-23T03:13:43.589Z,15.35
2023-11-23T03:14:15.412Z,14.52
2023-11-23T03:14:47.158Z,14.82
2023-11-23T03:15:19.146Z,15.50
2023-11-23T03:15:51.446Z,14.65
2023-11-23T03:16:23.159Z,14.23
2023-11-23T03:16:55.174Z,14.25
2023-11-23T03:17:27.638Z,14.77
2023-11-23T03:17:59.549Z,14.32
2023-11-23T03:18:31.620Z,15.93
2023-11-23T03:19:03.593Z,14.70
2023-11-23T03:19:35.403Z,13.63
2023-11-23T03:20:07.938Z,13.55
2023-11-23T03:20:39.668Z,13.63
2023-11-23T03:21:11.481Z,14.27
2023-11-23T03:21:43.531Z,15.07
2023-11-23T03:22:15.312Z,14.35
2023-11-23T03:22:47.054Z,16.55
2023-11-23T03:23:18.868Z,15.02
2023-11-23T03:23:50.623Z,14.00
2023-11-23T03:24:22.500Z,18.42
2023-11-23T03:24:54.265Z,14.77
2023-11-23T03:25:26.196Z,13.85
2023-11-23T03:25:59.428Z,13.57
2023-11-23T03:26:31.177Z,13.75
2023-11-23T03:27:03.194Z,13.57
2023-11-23T03:27:35.035Z,13.15
2023-11-23T03:28:07.607Z,15.70
2023-11-23T03:28:39.345Z,12.95
2023-11-23T03:29:11.102Z,14.30
2023-11-23T03:29:42.910Z,13.57
2023-11-23T03:30:14.905Z,14.48
2023-11-23T03:30:46.666Z,14.88
2023-11-23T03:31:18.356Z,15.52
2023-11-23T03:31:50.115Z,15.17
2023-11-23T03:32:21.857Z,13.77
2023-11-23T03:32:55.227Z,12.90
2023-11-23T03:33:27.087Z,14.77
2023-11-23T03:33:58.934Z,13.90
2023-11-23T03:34:30.673Z,15.00
2023-11-23T03:35:02.807Z,14.70
2023-11-23T03:35:34.697Z,14.10
2023-11-23T03:36:07.476Z,14.80
2023-11-23T03:36:39.245Z,13.60
2023-11-23T03:37:11.115Z,14.33
2023-11-23T03:37:43.045Z,16.48
2023-11-23T03:38:14.943Z,15.57
2023-11-23T03:38:46.800Z,16.15
2023-11-23T03:39:18.938Z,15.80
2023-11-23T03:39:50.831Z,14.45
2023-11-23T03:40:22.668Z,13.88
2023-11-23T03:40:54.365Z,14.68
2023-11-23T03:41:27.501Z,15.15
2023-11-23T03:41:59.309Z,14.10
2023-11-23T03:42:31.100Z,15.40
2023-11-23T03:43:02.845Z,14.15
2023-11-23T03:43:34.561Z,14.18
2023-11-23T03:44:06.583Z,14.85
2023-11-23T03:44:38.302Z,14.75
2023-11-23T03:45:10.396Z,15.65
2023-11-23T03:45:42.220Z,14.45
2023-11-23T03:46:14.135Z,16.00
2023-11-23T03:46:45.862Z,16.35
2023-11-23T03:47:17.582Z,15.27
2023-11-23T03:47:49.649Z,17.08
2023-11-23T03:48:21.483Z,14.50
2023-11-23T03:48:53.999Z,14.43
2023-11-23T03:49:25.716Z,14.80
2023-11-23T03:49:57.406Z,14.77
2023-11-23T03:50:29.125Z,17.93
2023-11-23T03:51:01.102Z,16.98
2023-11-23T03:51:32.833Z,15.60
2023-11-23T03:52:05.283Z,16.35
2023-11-23T03:52:37.023Z,15.95
2023-11-23T03:53:08.765Z,16.30
2023-11-23T03:53:40.523Z,17.27
2023-11-23T03:54:12.313Z,15.90
2023-11-23T03:54:44.217Z,16.17
2023-11-23T03:55:15.967Z,15.55
2023-11-23T03:55:47.737Z,14.65
2023-11-23T03:56:19.523Z,15.48
2023-11-23T03:56:52.679Z,15.90
2023-11-23T03:57:24.522Z,14.10
2023-11-23T03:57:56.279Z,14.70
2023-11-23T03:58:27.957Z,15.13
2023-11-23T03:58:59.827Z,16.00
2023-11-23T03:59:31.560Z,13.05
2023-11-23T04:00:03.680Z,14.20
2023-11-23T04:00:37.116Z,15.68
2023-11-23T04:01:09.376Z,15.30
2023-11-23T04:01:44.889Z,16.08
2023-11-23T04:02:16.742Z,18.00
2023-11-23T04:02:48.715Z,14.05
2023-11-23T04:03:20.497Z,14.85
2023-11-23T04:03:52.354Z,14.00
2023-11-23T04:04:24.150Z,14.00
2023-11-23T04:04:56.025Z,15.27
2023-11-23T04:05:27.743Z,15.45
2023-11-23T04:05:59.527Z,14.65
2023-11-23T04:06:31.281Z,15.73
2023-11-23T04:07:03.234Z,14.75
2023-11-23T04:07:34.965Z,15.57
2023-11-23T04:08:06.650Z,13.65
2023-11-23T04:08:39.646Z,14.98
2023-11-23T04:09:11.351Z,14.25
2023-11-23T04:09:43.056Z,17.23
2023-11-23T04:10:15.022Z,16.30
2023-11-23T04:10:46.729Z,14.90
2023-11-23T04:11:18.459Z,15.77
2023-11-23T04:11:50.148Z,14.95
2023-11-23T04:12:23.224Z,16.70
2023-11-23T04:12:54.957Z,16.45
2023-11-23T04:13:26.828Z,15.20
2023-11-23T04:13:58.551Z,15.13
2023-11-23T04:14:30.250Z,15.93
2023-11-23T04:15:02.369Z,15.13
2023-11-23T04:15:34.152Z,14.70
2023-11-23T04:16:06.515Z,14.88
2023-11-23T04:16:38.235Z,16.02
2023-11-23T04:17:10.087Z,14.25
2023-11-23T04:17:41.848Z,16.83
2023-11-23T04:18:13.731Z,15.60
2023-11-23T04:18:45.684Z,16.58
2023-11-23T04:19:17.436Z,15.57
2023-11-23T04:19:49.224Z,16.33
2023-11-23T04:20:20.976Z,15.60
2023-11-23T04:20:52.816Z,16.55
2023-11-23T04:21:24.538Z,14.80
2023-11-23T04:21:56.300Z,14.80
2023-11-23T04:22:28.107Z,17.75
2023-11-23T04:22:59.971Z,18.70
2023-11-23T04:23:31.694Z,16.60
2023-11-23T04:24:03.949Z,17.70
2023-11-23T04:24:38.047Z,16.50
2023-11-23T04:25:09.978Z,15.73
2023-11-23T04:25:41.726Z,16.98
2023-11-23T04:26:13.667Z,17.35
2023-11-23T04:26:45.464Z,16.27
2023-11-23T04:27:17.303Z,16.63
2023-11-23T04:27:50.442Z,15.90
2023-11-23T04:28:22.145Z,15.77
2023-11-23T04:28:53.841Z,15.48
2023-11-23T04:29:25.542Z,15.23
2023-11-23T04:29:57.374Z,15.77
2023-11-23T04:30:29.163Z,16.98
2023-11-23T04:31:00.880Z,14.93
2023-11-23T04:31:32.628Z,16.73
2023-11-23T04:32:05.122Z,15.38
2023-11-23T04:32:36.893Z,16.73
2023-11-23T04:33:08.773Z,17.77
2023-11-23T04:33:40.626Z,16.42
2023-11-23T04:34:12.810Z,16.35
2023-11-23T04:34:44.570Z,17.52
2023-11-23T04:35:16.412Z,16.13
2023-11-23T04:35:48.097Z,16.60
2023-11-23T04:36:19.860Z,16.63
2023-11-23T04:36:51.568Z,18.27
2023-11-23T04:37:23.269Z,16.38
2023-11-23T04:37:55.003Z,17.45
2023-11-23T04:38:26.756Z,16.92
2023-11-23T04:38:58.541Z,16.67
2023-11-23T04:39:30.301Z,16.60
2023-11-23T04:40:02.003Z,16.75
2023-11-23T04:40:33.892Z,15.05
2023-11-23T04:41:05.882Z,16.70
2023-11-23T04:41:37.670Z,17.70
2023-11-23T04:42:09.476Z,18.92
2023-11-23T04:42:42.162Z,17.02
2023-11-23T04:43:15.453Z,17.75
2023-11-23T04:43:47.219Z,16.10
2023-11-23T04:44:19.028Z,17.95
2023-11-23T04:44:50.751Z,15.70
2023-11-23T04:45:22.581Z,15.27
2023-11-23T04:45:54.352Z,16.33
2023-11-23T04:46:26.188Z,17.20
2023-11-23T04:46:57.948Z,17.25
2023-11-23T04:47:30.013Z,17.33
2023-11-23T04:48:01.872Z,17.90
2023-11-23T04:48:33.747Z,15.80
2023-11-23T04:49:05.640Z,17.90
2023-11-23T04:49:37.349Z,16.05
2023-11-23T04:50:09.973Z,16.08
2023-11-23T04:50:41.715Z,17.48
2023-11-23T04:51:13.435Z,15.13
2023-11-23T04:51:45.145Z,17.60
2023-11-23T04:52:16.861Z,16.88
2023-11-23T04:52:48.588Z,17.58
2023-11-23T04:53:20.286Z,17.92
2023-11-23T04:53:52.143Z,16.77
2023-11-23T04:54:23.962Z,18.50
2023-11-23T04:54:55.678Z,16.67
2023-11-23T04:55:27.375Z,16.25
2023-11-23T04:55:59.140Z,17.70
2023-11-23T04:56:31.062Z,17.98
2023-11-23T04:57:03.046Z,20.33
2023-11-23T04:57:34.872Z,18.57
2023-11-23T04:58:06.629Z,16.67
2023-11-23T04:58:39.734Z,17.10
2023-11-23T04:59:11.474Z,16.67
2023-11-23T04:59:43.195Z,17.75
2023-11-23T05:00:15.788Z,17.75
2023-11-23T05:00:47.680Z,16.73
2023-11-23T05:01:21.766Z,16.25
2023-11-23T05:01:53.606Z,17.73
2023-11-23T05:02:25.377Z,17.35
2023-11-23T05:02:57.209Z,20.17
2023-11-23T05:03:29.276Z,18.23
2023-11-23T05:04:04.999Z,18.35
2023-11-23T05:04:37.653Z,17.63
2023-11-23T05:05:09.725Z,18.10
2023-11-23T05:05:41.588Z,18.73
2023-11-23T05:06:13.613Z,18.95
2023-11-23T05:06:45.489Z,19.63
2023-11-23T05:07:17.304Z,18.88
2023-11-23T05:07:49.170Z,19.10
2023-11-23T05:08:20.930Z,16.88
2023-11-23T05:08:52.708Z,18.50
2023-11-23T05:09:24.523Z,17.20
2023-11-23T05:09:56.265Z,19.15
2023-11-23T05:10:27.981Z,18.65
2023-11-23T05:10:59.778Z,18.50
2023-11-23T05:11:31.531Z,19.13
2023-11-23T05:12:03.763Z,18.67
2023-11-23T05:12:36.058Z,20.15
2023-11-23T05:13:07.893Z,19.25
2023-11-23T05:13:41.133Z,18.58
2023-11-23T05:14:12.984Z,19.33
2023-11-23T05:14:44.756Z,19.35
2023-11-23T05:15:16.661Z,19.15
2023-11-23T05:15:48.432Z,17.50
2023-11-23T05:16:20.254Z,18.15
2023-11-23T05:16:52.203Z,18.48
2023-11-23T05:17:24.108Z,19.42
2023-11-23T05:17:55.977Z,17.40
2023-11-23T05:18:27.832Z,17.80
2023-11-23T05:18:59.686Z,19.00
2023-11-23T05:19:39.783Z,18.08
2023-11-23T05:20:14.632Z,18.13
2023-11-23T05:20:46.413Z,18.55
2023-11-23T05:21:18.305Z,19.23
2023-11-23T05:21:50.005Z,18.25
2023-11-23T05:22:21.685Z,18.98
2023-11-23T05:22:53.565Z,18.23
2023-11-23T05:23:25.334Z,18.92
2023-11-23T05:23:59.005Z,18.77
2023-11-23T05:24:32.098Z,19.65
2023-11-23T05:25:04.600Z,18.02
2023-11-23T05:25:36.479Z,18.75
2023-11-23T05:26:08.274Z,16.60
2023-11-23T05:26:40.042Z,18.02
2023-11-23T05:27:11.881Z,18.70
2023-11-23T05:27:43.712Z,19.48
2023-11-23T05:28:15.466Z,19.10
2023-11-23T05:28:48.597Z,18.00
2023-11-23T05:29:20.343Z,18.27
2023-11-23T05:29:52.401Z,19.00
2023-11-23T05:30:24.413Z,19.35
2023-11-23T05:30:56.221Z,17.63
2023-11-23T05:31:28.097Z,18.67
2023-11-23T05:31:59.828Z,18.63
2023-11-23T05:32:31.565Z,19.53
2023-11-23T05:33:03.542Z,20.27
2023-11-23T05:33:35.456Z,18.40
2023-11-23T05:34:07.287Z,20.15
2023-11-23T05:34:39.017Z,20.00
2023-11-23T05:35:10.888Z,19.30
2023-11-23T05:35:42.712Z,18.98
2023-11-23T05:36:14.608Z,17.20
2023-11-23T05:36:46.349Z,18.38
2023-11-23T05:37:18.135Z,19.20
2023-11-23T05:37:49.905Z,19.67
2023-11-23T05:38:21.628Z,19.73
2023-11-23T05:38:53.709Z,19.17
2023-11-23T05:39:25.812Z,19.85
2023-11-23T05:39:57.754Z,19.33
2023-11-23T05:40:29.614Z,19.25
2023-11-23T05:41:01.409Z,18.25
2023-11-23T05:41:33.134Z,17.77
2023-11-23T05:42:05.345Z,17.92
2023-11-23T05:42:37.146Z,17.52
2023-11-23T05:43:08.870Z,18.20
2023-11-23T05:43:40.623Z,19.00
2023-11-23T05:44:13.699Z,18.38
2023-11-23T05:44:45.435Z,18.80
2023-11-23T05:45:17.276Z,19.38
2023-11-23T05:45:49.040Z,19.33
2023-11-23T05:46:20.787Z,19.35
2023-11-23T05:46:52.627Z,22.75
2023-11-23T05:47:24.400Z,17.83
2023-11-23T05:47:56.322Z,19.08
2023-11-23T05:48:28.263Z,18.13
2023-11-23T05:49:00.124Z,19.23
2023-11-23T05:49:31.975Z,17.42
2023-11-23T05:50:03.944Z,17.23
2023-11-23T05:50:35.673Z,18.55
2023-11-23T05:51:07.605Z,19.70
2023-11-23T05:51:39.337Z,19.58
2023-11-23T05:52:11.159Z,20.17
2023-11-23T05:52:43.182Z,21.25
2023-11-23T05:53:14.935Z,19.08
2023-11-23T05:53:46.661Z,18.35
2023-11-23T05:54:18.661Z,18.05
2023-11-23T05:54:50.401Z,17.02
2023-11-23T05:55:22.216Z,19.88
2023-11-23T05:55:53.931Z,18.88
2023-11-23T05:56:27.051Z,19.15
2023-11-23T05:56:58.882Z,19.42
2023-11-23T05:57:30.680Z,19.13
2023-11-23T05:58:02.447Z,18.33
2023-11-23T05:58:34.164Z,19.42
2023-11-23T05:59:05.930Z,18.77
2023-11-23T05:59:39.048Z,20.73
2023-11-23T06:00:12.269Z,18.58
2023-11-23T06:00:44.002Z,18.20
2023-11-23T06:01:15.987Z,19.92
2023-11-23T06:01:47.731Z,19.02
2023-11-23T06:02:19.692Z,19.70
2023-11-23T06:02:51.696Z,19.67
2023-11-23T06:03:25.408Z,17.92
2023-11-23T06:03:57.546Z,20.80
2023-11-23T06:04:29.589Z,21.08
2023-11-23T06:05:01.447Z,19.33
2023-11-23T06:05:33.367Z,18.25
2023-11-23T06:06:05.837Z,19.48
2023-11-23T06:06:37.593Z,19.33
2023-11-23T06:07:09.543Z,20.33
2023-11-23T06:07:41.288Z,19.30
2023-11-23T06:08:13.031Z,22.25
2023-11-23T06:08:44.755Z,17.58
2023-11-23T06:09:16.560Z,20.85
2023-11-23T06:09:48.431Z,18.85
2023-11-23T06:10:20.289Z,17.25
2023-11-23T06:10:52.086Z,19.45
2023-11-23T06:11:23.844Z,19.00
2023-11-23T06:11:55.573Z,18.52
2023-11-23T06:12:27.357Z,19.23
2023-11-23T06:12:59.119Z,19.05
2023-11-23T06:13:30.779Z,21.17
2023-11-23T06:14:02.620Z,20.42
2023-11-23T06:14:34.618Z,19.38
2023-11-23T06:15:09.550Z,19.38
2023-11-23T06:15:41.353Z,19.45
2023-11-23T06:16:13.466Z,19.05
2023-11-23T06:16:45.214Z,19.17
2023-11-23T06:17:16.904Z,19.10
2023-11-23T06:17:49.526Z,18.42
2023-11-23T06:18:21.953Z,18.58
2023-11-23T06:18:53.781Z,20.10
2023-11-23T06:19:25.549Z,20.73
2023-11-23T06:19:57.324Z,20.02
2023-11-23T06:20:29.158Z,20.10
2023-11-23T06:21:01.006Z,20.10
2023-11-23T06:21:32.795Z,19.88
2023-11-23T06:22:04.684Z,20.67
2023-11-23T06:22:36.475Z,19.98
2023-11-23T06:23:09.358Z,20.10
2023-11-23T06:23:41.239Z,18.58
2023-11-23T06:24:13.084Z,21.10
2023-11-23T06:24:44.826Z,19.88
2023-11-23T06:25:16.911Z,20.98
2023-11-23T06:25:48.661Z,19.55
2023-11-23T06:26:20.473Z,22.05
2023-11-23T06:26:52.894Z,21.40
2023-11-23T06:27:24.640Z,18.42
2023-11-23T06:28:05.016Z,19.30
2023-11-23T06:28:43.586Z,20.00
2023-11-23T06:54:33.147Z,21.77
2023-11-23T06:55:05.702Z,21.60
2023-11-23T06:55:37.423Z,22.77
2023-11-23T06:56:10.140Z,19.70
2023-11-23T06:56:42.025Z,20.48
2023-11-23T06:57:13.859Z,21.27
2023-11-23T06:57:45.639Z,21.55
2023-11-23T06:58:17.468Z,19.75
2023-11-23T06:58:52.583Z,21.38
2023-11-23T07:00:23.785Z,19.45
2023-11-23T07:00:55.737Z,19.88
2023-11-23T07:01:27.547Z,20.95
2023-11-23T07:01:59.529Z,21.25
2023-11-23T07:02:31.452Z,20.13
2023-11-23T07:03:03.567Z,18.52
2023-11-23T07:03:36.839Z,20.10
2023-11-23T07:04:08.780Z,21.10
2023-11-23T07:04:41.526Z,21.50
2023-11-23T07:05:13.366Z,20.23
2023-11-23T07:05:45.070Z,18.88
2023-11-23T07:06:16.946Z,19.50
2023-11-23T07:06:48.775Z,19.52
2023-11-23T07:07:20.477Z,21.57
2023-11-23T07:07:53.510Z,19.65
2023-11-23T07:08:25.222Z,20.15
2023-11-23T07:08:57.054Z,21.10
2023-11-23T07:09:28.856Z,22.58
2023-11-23T07:10:01.987Z,22.73
2023-11-23T07:10:33.918Z,20.63
2023-11-23T07:11:05.894Z,23.98
2023-11-23T07:11:37.681Z,24.10
2023-11-23T07:12:09.872Z,23.67
2023-11-23T07:12:42.226Z,22.50
2023-11-23T07:13:14.153Z,22.35
2023-11-23T07:13:46.124Z,20.40
2023-11-23T07:14:17.955Z,21.50
2023-11-23T07:14:49.786Z,23.13
2023-11-23T07:15:21.921Z,21.70
2023-11-23T07:15:54.134Z,21.35
2023-11-23T07:16:25.932Z,22.50
2023-11-23T07:16:57.758Z,20.20
2023-11-23T07:17:29.674Z,21.70
2023-11-23T07:18:01.624Z,22.48
2023-11-23T07:18:33.563Z,21.00
2023-11-23T07:19:05.588Z,21.55
2023-11-23T07:19:37.406Z,21.70